createdAt,value
2022-10-25T00:01:20.764Z,59.12
2022-10-25T00:03:48.769Z,58.92
2022-10-25T00:06:16.631Z,58.77
2022-10-25T00:08:46.839Z,58.58
2022-10-25T00:11:19.374Z,57.95
2022-10-25T00:13:48.717Z,57.84
2022-10-25T00:16:20.565Z,56.82
2022-10-25T00:18:48.737Z,56.54
2022-10-25T00:21:16.641Z,58.57
2022-10-25T00:23:44.554Z,57.89
2022-10-25T00:26:13.028Z,57.43
2022-10-25T00:28:41.822Z,57.34
2022-10-25T00:31:12.164Z,57.15
2022-10-25T00:33:43.875Z,57.45
2022-10-25T00:36:13.961Z,56.43
2022-10-25T00:38:42.676Z,57.36
2022-10-25T00:41:11.907Z,55.75
2022-10-25T00:43:42.017Z,55.84
2022-10-25T00:46:14.925Z,55.41
2022-10-25T00:48:53.032Z,55.96
2022-10-25T00:51:25.098Z,57.10
2022-10-25T00:53:53.487Z,56.14
2022-10-25T00:56:26.267Z,55.04
2022-10-25T00:58:58.623Z,56.74
2022-10-25T01:01:26.928Z,55.52
2022-10-25T01:03:58.817Z,56.13
2022-10-25T01:06:31.199Z,56.90
2022-10-25T01:08:59.653Z,55.42
2022-10-25T01:11:27.616Z,54.39
2022-10-25T01:13:57.032Z,53.92
2022-10-25T01:16:31.028Z,54.97
2022-10-25T01:19:11.760Z,54.46
2022-10-25T01:21:46.537Z,54.39
2022-10-25T01:24:45.092Z,54.56
2022-10-25T01:27:31.951Z,54.68
2022-10-25T01:30:18.200Z,54.05
2022-10-25T01:33:11.158Z,53.35
2022-10-25T01:35:46.455Z,55.12
2022-10-25T01:38:30.582Z,54.40
2022-10-25T01:41:09.800Z,55.42
2022-10-25T01:43:47.445Z,54.88
2022-10-25T01:46:22.034Z,55.45
2022-10-25T01:48:56.574Z,56.12
2022-10-25T01:51:28.013Z,55.30
2022-10-25T01:53:56.492Z,56.24
2022-10-25T01:56:28.523Z,55.87
2022-10-25T01:59:14.735Z,55.34
2022-10-25T02:02:01.179Z,55.68
2022-10-25T02:04:41.577Z,54.78
2022-10-25T02:07:16.544Z,55.70
2022-10-25T02:09:54.346Z,57.24
2022-10-25T02:12:28.978Z,56.65
2022-10-25T02:15:07.080Z,56.51
2022-10-25T02:17:37.572Z,56.96
2022-10-25T02:20:09.982Z,56.13
2022-10-25T02:22:40.698Z,56.04
2022-10-25T02:25:10.611Z,56.90
2022-10-25T02:27:40.811Z,56.53
2022-10-25T02:30:10.270Z,56.64
2022-10-25T02:32:38.334Z,57.49
2022-10-25T02:37:46.992Z,57.17
2022-10-25T02:40:15.436Z,57.22
2022-10-25T02:42:43.331Z,58.06
2022-10-25T02:45:12.262Z,58.48
2022-10-25T02:47:40.233Z,60.30
2022-10-25T02:50:10.451Z,60.03
2022-10-25T02:52:38.372Z,59.22
2022-10-25T02:55:07.303Z,59.24
2022-10-25T02:57:35.698Z,58.38
2022-10-25T03:00:04.341Z,59.44
2022-10-25T03:02:32.206Z,58.85
2022-10-25T03:05:00.212Z,58.51
2022-10-25T03:07:29.489Z,60.10
2022-10-25T03:09:57.470Z,58.39
2022-10-25T03:12:25.441Z,57.67
2022-10-25T03:14:53.375Z,58.05
2022-10-25T03:17:21.450Z,58.16
2022-10-25T03:19:49.496Z,58.49
2022-10-25T03:22:17.393Z,58.17
2022-10-25T03:24:46.776Z,59.09
2022-10-25T03:27:14.655Z,57.89
2022-10-25T03:29:42.559Z,58.46
2022-10-25T03:32:10.984Z,58.12
2022-10-25T03:34:39.137Z,58.53
2022-10-25T03:37:07.140Z,58.56
2022-10-25T03:39:35.070Z,58.22
2022-10-25T03:42:04.503Z,59.45
2022-10-25T03:44:32.360Z,59.10
2022-10-25T03:47:00.390Z,59.46
2022-10-25T03:49:28.300Z,59.26
2022-10-25T03:51:58.898Z,60.09
2022-10-25T03:54:29.572Z,59.28
2022-10-25T03:56:57.954Z,58.73
2022-10-25T03:59:27.731Z,58.20
2022-10-25T04:01:56.141Z,57.47
2022-10-25T04:04:24.108Z,58.09
2022-10-25T04:06:53.218Z,57.96
2022-10-25T04:09:21.148Z,58.54
2022-10-25T04:11:52.600Z,58.62
2022-10-25T04:14:20.637Z,57.79
2022-10-25T04:16:49.968Z,57.71
2022-10-25T04:19:18.269Z,57.96
2022-10-25T04:21:46.141Z,57.33
2022-10-25T04:24:14.111Z,58.55
2022-10-25T04:26:42.100Z,57.91
2022-10-25T04:29:12.516Z,57.71
2022-10-25T04:31:40.455Z,57.42
2022-10-25T04:34:09.777Z,56.70
2022-10-25T04:36:39.071Z,56.49
2022-10-25T04:39:06.963Z,55.85
2022-10-25T04:41:35.120Z,56.24
2022-10-25T04:44:03.042Z,56.98
2022-10-25T04:46:30.962Z,56.48
2022-10-25T04:49:01.233Z,56.47
2022-10-25T04:51:30.534Z,56.15
2022-10-25T04:53:58.576Z,56.26
2022-10-25T04:56:26.786Z,56.63
2022-10-25T04:58:59.717Z,56.53
2022-10-25T05:01:27.919Z,57.82
2022-10-25T05:03:56.127Z,58.02
2022-10-25T05:06:26.700Z,57.38
2022-10-25T05:08:56.707Z,56.80
2022-10-25T05:11:26.069Z,56.16
2022-10-25T05:13:54.283Z,55.73
2022-10-25T05:16:24.786Z,54.93
2022-10-25T05:18:55.396Z,54.94
2022-10-25T05:24:02.213Z,55.33
2022-10-25T05:26:31.545Z,55.86
2022-10-25T05:28:59.746Z,56.75
2022-10-25T05:31:32.014Z,56.78
2022-10-25T05:34:02.058Z,56.24
2022-10-25T05:36:30.591Z,57.12
2022-10-25T05:39:01.761Z,56.76
2022-10-25T05:41:33.182Z,56.83
2022-10-25T05:44:04.359Z,56.83
2022-10-25T05:46:32.742Z,56.62
2022-10-25T05:49:01.424Z,56.09
2022-10-25T05:51:35.202Z,56.89
2022-10-25T05:54:07.066Z,56.34
2022-10-25T05:56:36.076Z,55.44
2022-10-25T05:59:07.634Z,54.28
2022-10-25T06:01:36.848Z,54.88
2022-10-25T06:04:05.134Z,55.83
2022-10-25T06:06:33.018Z,55.14
2022-10-25T06:09:02.360Z,55.08
2022-10-25T06:11:32.208Z,55.14
2022-10-25T06:14:00.406Z,55.79
2022-10-25T06:16:28.689Z,55.65
2022-10-25T06:18:56.719Z,59.01
2022-10-25T06:21:26.661Z,57.57
2022-10-25T06:23:55.425Z,56.06
2022-10-25T06:26:25.102Z,56.49
2022-10-25T06:28:56.359Z,56.19
2022-10-25T06:31:24.766Z,55.29
2022-10-25T06:33:52.969Z,56.35
2022-10-25T06:36:22.918Z,56.46
2022-10-25T06:38:51.863Z,55.56
2022-10-25T06:41:21.747Z,55.86
2022-10-25T06:43:50.262Z,54.76
2022-10-25T06:46:26.185Z,55.74
2022-10-25T06:48:56.107Z,56.15
2022-10-25T06:51:25.122Z,55.08
2022-10-25T06:53:55.362Z,55.40
2022-10-25T06:56:23.470Z,55.06
2022-10-25T06:58:51.677Z,55.28
2022-10-25T07:01:22.513Z,55.93
2022-10-25T07:03:53.549Z,55.89
2022-10-25T07:06:24.243Z,55.32
2022-10-25T07:08:55.863Z,55.78
2022-10-25T07:11:25.006Z,56.02
2022-10-25T07:13:52.922Z,55.98
2022-10-25T07:16:22.222Z,55.72
2022-10-25T07:18:50.443Z,55.50
2022-10-25T07:21:21.220Z,55.88
2022-10-25T07:23:50.127Z,55.42
2022-10-25T07:26:20.254Z,55.66
2022-10-25T07:28:49.918Z,55.73
2022-10-25T07:31:20.011Z,54.66
2022-10-25T07:33:49.702Z,55.67
2022-10-25T07:36:17.623Z,56.13
2022-10-25T07:38:45.813Z,56.43
2022-10-25T07:41:14.240Z,57.17
2022-10-25T07:43:42.194Z,55.26
2022-10-25T07:46:10.074Z,54.81
2022-10-25T07:48:38.288Z,55.01
2022-10-25T07:51:09.228Z,55.09
2022-10-25T07:53:37.101Z,54.71
2022-10-25T07:56:05.836Z,54.44
2022-10-25T07:58:33.837Z,53.42
2022-10-25T08:01:03.196Z,53.31
2022-10-25T08:03:34.989Z,53.21
2022-10-25T08:06:04.005Z,53.06
2022-10-25T08:08:33.924Z,53.06
2022-10-25T08:11:08.085Z,53.71
2022-10-25T08:13:36.743Z,53.19
2022-10-25T08:16:05.721Z,53.09
2022-10-25T08:18:34.554Z,54.08
2022-10-25T08:21:04.071Z,52.94
2022-10-25T08:23:34.136Z,53.50
2022-10-25T08:26:02.518Z,54.16
2022-10-25T08:28:31.749Z,53.42
2022-10-25T08:31:01.261Z,53.54
2022-10-25T08:33:29.574Z,52.31
2022-10-25T08:36:00.165Z,52.36
2022-10-25T08:38:28.101Z,52.61
2022-10-25T08:41:04.405Z,52.71
2022-10-25T08:43:55.411Z,53.02
2022-10-25T08:46:27.245Z,52.05
2022-10-25T08:49:03.733Z,51.60
2022-10-25T08:51:36.996Z,50.38
2022-10-25T08:54:11.887Z,49.56
2022-10-25T08:56:51.240Z,49.99
2022-10-25T08:59:31.399Z,51.16
2022-10-25T09:02:01.079Z,50.45
2022-10-25T09:04:31.743Z,49.49
2022-10-25T09:07:12.568Z,49.75
2022-10-25T09:09:47.852Z,50.21
2022-10-25T09:12:24.277Z,50.74
2022-10-25T09:14:59.112Z,49.85
2022-10-25T09:17:40.065Z,49.00
2022-10-25T09:20:16.351Z,49.06
2022-10-25T09:22:47.648Z,49.31
2022-10-25T09:25:22.971Z,47.85
2022-10-25T09:28:00.534Z,47.09
2022-10-25T09:30:31.186Z,46.49
2022-10-25T09:33:02.482Z,46.74
2022-10-25T09:35:41.750Z,47.02
2022-10-25T09:38:15.422Z,46.98
2022-10-25T09:40:47.918Z,47.35
2022-10-25T09:43:21.331Z,47.07
2022-10-25T09:45:52.556Z,47.17
2022-10-25T09:48:27.015Z,47.55
2022-10-25T09:50:58.894Z,48.63
2022-10-25T09:53:27.371Z,48.25
2022-10-25T09:55:57.161Z,49.52
2022-10-25T09:58:28.613Z,48.77
2022-10-25T10:01:00.067Z,48.58
2022-10-25T10:03:31.483Z,49.11
2022-10-25T10:06:03.195Z,47.75
2022-10-25T10:08:34.749Z,49.03
2022-10-25T10:11:04.865Z,49.02
2022-10-25T10:13:39.998Z,48.16
2022-10-25T10:16:20.711Z,47.85
2022-10-25T10:18:49.197Z,48.51
2022-10-25T10:21:19.721Z,47.73
2022-10-25T10:23:54.294Z,47.08
2022-10-25T10:26:27.894Z,46.78
2022-10-25T10:29:09.344Z,46.87
2022-10-25T10:31:39.085Z,47.70
2022-10-25T10:34:23.356Z,47.77
2022-10-25T10:37:03.251Z,48.13
2022-10-25T10:39:31.146Z,47.86
2022-10-25T10:42:04.208Z,46.86
2022-10-25T10:44:34.893Z,46.44
2022-10-25T10:47:10.955Z,46.36
2022-10-25T10:49:43.301Z,46.47
2022-10-25T10:52:29.240Z,45.78
2022-10-25T10:54:58.367Z,44.73
2022-10-25T10:57:30.947Z,43.33
2022-10-25T11:00:01.592Z,43.26
2022-10-25T11:02:39.055Z,43.60
2022-10-25T11:05:21.194Z,44.36
2022-10-25T11:07:56.207Z,44.56
2022-10-25T11:10:27.600Z,43.48
2022-10-25T11:13:15.231Z,44.11
2022-10-25T11:16:21.975Z,44.21
2022-10-25T11:19:13.928Z,45.33
2022-10-25T11:21:54.907Z,44.52
2022-10-25T11:24:32.885Z,45.66
2022-10-25T11:27:11.739Z,46.13
2022-10-25T11:29:54.268Z,45.41
2022-10-25T11:32:43.748Z,44.32
2022-10-25T11:35:28.039Z,45.53
2022-10-25T11:38:04.030Z,45.31
2022-10-25T11:40:36.373Z,45.09
2022-10-25T11:43:17.599Z,44.84
2022-10-25T11:45:46.986Z,43.96
2022-10-25T11:48:31.665Z,44.45
2022-10-25T11:51:10.775Z,43.36
2022-10-25T11:53:59.547Z,44.34
2022-10-25T11:56:37.512Z,43.79
2022-10-25T11:59:16.056Z,43.48
2022-10-25T12:01:58.523Z,44.59
2022-10-25T12:04:49.186Z,44.14
2022-10-25T12:07:23.587Z,45.13
2022-10-25T12:10:04.789Z,44.70
2022-10-25T12:12:41.995Z,44.04
2022-10-25T12:15:17.707Z,43.34
2022-10-25T12:17:46.161Z,43.93
2022-10-25T12:20:23.808Z,44.77
2022-10-25T12:22:54.626Z,42.74
2022-10-25T12:25:27.857Z,42.30
2022-10-25T12:28:04.575Z,42.20
2022-10-25T12:30:35.504Z,42.18
2022-10-25T12:33:13.078Z,42.02
2022-10-25T12:35:49.299Z,43.51
2022-10-25T12:38:22.030Z,43.58
2022-10-25T12:40:52.234Z,43.14
2022-10-25T12:43:40.053Z,40.71
2022-10-25T12:46:23.118Z,41.78
2022-10-25T12:49:16.052Z,41.01
2022-10-25T12:52:01.192Z,40.75
2022-10-25T12:54:45.271Z,41.18
2022-10-25T12:57:23.293Z,40.75
2022-10-25T13:00:02.791Z,41.57
2022-10-25T13:03:01.681Z,41.23
2022-10-25T13:05:46.480Z,42.24
2022-10-25T13:08:18.178Z,42.19
2022-10-25T13:10:51.347Z,41.88
2022-10-25T13:13:23.561Z,41.51
2022-10-25T13:15:54.393Z,42.16
2022-10-25T13:18:40.155Z,42.22
2022-10-25T13:21:10.926Z,41.57
2022-10-25T13:24:03.859Z,41.36
2022-10-25T13:26:34.350Z,40.73
2022-10-25T13:29:04.896Z,42.84
2022-10-25T13:31:58.429Z,43.37
2022-10-25T13:34:36.978Z,41.97
2022-10-25T13:37:44.059Z,43.24
2022-10-25T13:40:31.927Z,41.70
2022-10-25T13:43:05.760Z,43.35
2022-10-25T13:45:39.437Z,42.47
2022-10-25T13:48:18.018Z,43.10
2022-10-25T13:50:48.254Z,43.86
2022-10-25T13:53:23.415Z,43.38
2022-10-25T13:56:03.639Z,42.35
2022-10-25T13:58:49.993Z,44.17
2022-10-25T14:02:00.276Z,44.24
2022-10-25T14:04:37.838Z,43.91
2022-10-25T14:07:44.294Z,43.77
2022-10-25T14:10:25.245Z,43.77
2022-10-25T14:13:01.225Z,43.62
2022-10-25T14:15:40.958Z,43.38
2022-10-25T14:18:13.038Z,42.95
2022-10-25T14:20:41.214Z,43.32
2022-10-25T14:23:16.849Z,43.13
2022-10-25T14:25:52.039Z,43.17
2022-10-25T14:28:27.044Z,43.38
2022-10-25T14:30:57.693Z,41.89
2022-10-25T14:33:28.718Z,42.02
2022-10-25T14:35:59.100Z,42.67
2022-10-25T14:38:29.110Z,43.25
2022-10-25T14:40:58.661Z,42.91
2022-10-25T14:43:30.501Z,43.42
2022-10-25T14:46:01.237Z,41.76
2022-10-25T14:48:29.718Z,42.18
2022-10-25T14:51:00.453Z,41.88
2022-10-25T14:53:29.638Z,42.66
2022-10-25T14:56:01.131Z,42.91
2022-10-25T14:58:38.364Z,42.91
2022-10-25T15:01:06.661Z,43.05
2022-10-25T15:03:42.126Z,42.15
2022-10-25T15:06:10.585Z,41.59
2022-10-25T15:08:41.121Z,42.35
2022-10-25T15:11:19.437Z,43.40
2022-10-25T15:13:51.918Z,42.65
2022-10-25T15:16:34.401Z,43.22
2022-10-25T15:19:20.412Z,43.92
2022-10-25T15:21:50.201Z,44.03
2022-10-25T15:24:20.855Z,44.43
2022-10-25T15:26:56.210Z,44.75
2022-10-25T15:29:45.896Z,44.25
2022-10-25T15:32:16.510Z,45.52
2022-10-25T15:34:46.843Z,45.03
2022-10-25T15:37:17.876Z,44.62
2022-10-25T15:39:47.678Z,44.63
2022-10-25T15:42:16.065Z,44.67
2022-10-25T15:44:46.020Z,43.63
2022-10-25T15:47:30.469Z,43.45
2022-10-25T15:49:59.053Z,43.65
2022-10-25T15:52:27.547Z,44.92
2022-10-25T15:54:55.616Z,43.69
2022-10-25T15:57:23.528Z,45.91
2022-10-25T15:59:52.782Z,43.66
2022-10-25T16:02:22.840Z,45.31
2022-10-25T16:04:50.840Z,47.06
2022-10-25T16:07:18.691Z,46.95
2022-10-25T16:09:46.864Z,47.34
2022-10-25T16:12:20.564Z,47.78
2022-10-25T16:14:50.184Z,47.65
2022-10-25T16:17:19.586Z,47.63
2022-10-25T16:19:47.502Z,47.11
2022-10-25T16:22:15.616Z,48.66
2022-10-25T16:24:43.524Z,49.04
2022-10-25T16:27:12.914Z,48.15
2022-10-25T16:29:41.327Z,47.26
2022-10-25T16:32:09.549Z,47.45
2022-10-25T16:34:42.443Z,49.20
2022-10-25T16:37:11.876Z,49.07
2022-10-25T16:39:40.104Z,48.94
2022-10-25T16:42:27.429Z,49.64
2022-10-25T16:44:56.321Z,48.66
2022-10-25T16:47:24.782Z,47.61
2022-10-25T16:49:54.602Z,48.97
2022-10-25T16:52:22.969Z,49.35
2022-10-25T16:54:50.924Z,49.11
2022-10-25T16:57:18.893Z,48.85
2022-10-25T16:59:49.042Z,49.13
2022-10-25T17:02:20.166Z,49.30
2022-10-25T17:04:49.602Z,49.42
2022-10-25T17:07:19.319Z,49.82
2022-10-25T17:09:47.444Z,50.27
2022-10-25T17:12:15.874Z,50.59
2022-10-25T17:14:43.856Z,50.71
2022-10-25T17:17:11.885Z,50.77
2022-10-25T17:19:39.863Z,50.92
2022-10-25T17:22:08.353Z,51.01
2022-10-25T17:24:37.735Z,50.73
2022-10-25T17:27:06.309Z,50.72
2022-10-25T17:29:34.339Z,50.67
2022-10-25T17:32:02.203Z,51.02
2022-10-25T17:34:32.133Z,50.96
2022-10-25T17:37:02.157Z,51.32
2022-10-25T17:39:30.546Z,51.83
2022-10-25T17:41:59.950Z,51.54
2022-10-25T17:44:28.064Z,51.43
2022-10-25T17:46:58.312Z,51.43
2022-10-25T17:49:28.995Z,51.32
2022-10-25T17:51:56.924Z,50.86
2022-10-25T17:54:24.842Z,50.67
2022-10-25T17:56:56.479Z,50.17
2022-10-25T17:59:27.706Z,50.79
2022-10-25T18:01:55.943Z,50.93
2022-10-25T18:04:24.557Z,50.64
2022-10-25T18:06:52.892Z,51.06
2022-10-25T18:09:21.024Z,50.99
2022-10-25T18:11:49.088Z,51.50
2022-10-25T18:14:17.095Z,51.13
2022-10-25T18:16:46.994Z,51.62
2022-10-25T18:19:15.745Z,52.63
2022-10-25T18:21:43.702Z,52.90
2022-10-25T18:24:13.998Z,52.85
2022-10-25T18:26:41.994Z,53.50
2022-10-25T18:29:10.997Z,53.34
2022-10-25T18:31:38.945Z,53.37
2022-10-25T18:34:08.286Z,53.43
2022-10-25T18:36:36.240Z,53.13
2022-10-25T18:39:06.249Z,53.65
2022-10-25T18:41:35.607Z,53.03
2022-10-25T18:44:03.955Z,53.04
2022-10-25T18:46:32.782Z,53.62
2022-10-25T18:49:00.898Z,54.07
2022-10-25T18:51:31.917Z,54.13
2022-10-25T18:54:01.953Z,54.21
2022-10-25T18:56:31.878Z,54.43
2022-10-25T18:59:00.052Z,54.02
2022-10-25T19:01:32.815Z,54.71
2022-10-25T19:04:02.247Z,54.45
2022-10-25T19:06:33.273Z,54.28
2022-10-25T19:09:03.486Z,54.15
2022-10-25T19:11:33.964Z,54.66
2022-10-25T19:14:03.988Z,54.76
2022-10-25T19:16:40.087Z,52.90
2022-10-25T19:19:08.792Z,55.07
2022-10-25T19:21:38.080Z,55.26
2022-10-25T19:24:06.766Z,55.67
2022-10-25T19:26:34.703Z,55.74
2022-10-25T19:29:02.858Z,55.85
2022-10-25T19:31:31.078Z,56.00
2022-10-25T19:34:02.877Z,55.35
2022-10-25T19:36:31.122Z,55.68
2022-10-25T19:39:01.450Z,55.14
2022-10-25T19:41:29.716Z,56.07
2022-10-25T19:43:59.047Z,55.90
2022-10-25T19:46:27.087Z,55.75
2022-10-25T19:48:56.291Z,55.72
2022-10-25T19:51:24.390Z,54.99
2022-10-25T19:53:52.581Z,55.43
2022-10-25T19:56:24.078Z,55.32
2022-10-25T19:58:52.561Z,55.65
2022-10-25T20:01:23.286Z,55.05
2022-10-25T20:03:54.596Z,55.36
2022-10-25T20:06:25.090Z,55.72
2022-10-25T20:08:53.548Z,55.31
2022-10-25T20:11:24.087Z,54.47
2022-10-25T20:13:54.010Z,55.06
2022-10-25T20:16:22.168Z,55.04
2022-10-25T20:18:50.176Z,55.55
2022-10-25T20:21:21.951Z,55.51
2022-10-25T20:23:55.401Z,55.63
2022-10-25T20:26:27.395Z,55.88
2022-10-25T20:28:56.598Z,55.76
2022-10-25T20:31:25.335Z,55.74
2022-10-25T20:33:54.227Z,55.92
2022-10-25T20:36:22.582Z,56.05
2022-10-25T20:38:50.802Z,55.83
2022-10-25T20:41:21.134Z,55.60
2022-10-25T20:43:52.099Z,55.71
2022-10-25T20:46:21.053Z,55.49
2022-10-25T20:48:49.061Z,55.44
2022-10-25T20:51:17.836Z,55.56
2022-10-25T20:53:46.730Z,55.32
2022-10-25T20:56:14.895Z,55.17
2022-10-25T20:58:43.471Z,55.01
2022-10-25T21:01:13.959Z,55.25
2022-10-25T21:03:42.285Z,55.47
2022-10-25T21:06:12.725Z,54.80
2022-10-25T21:08:41.534Z,54.90
2022-10-25T21:11:12.605Z,54.87
2022-10-25T21:13:40.720Z,55.24
2022-10-25T21:16:09.781Z,55.59
2022-10-25T21:18:39.127Z,55.24
2022-10-25T21:21:08.695Z,55.51
2022-10-25T21:23:36.768Z,55.55
2022-10-25T21:26:06.768Z,55.74
2022-10-25T21:28:36.734Z,55.96
2022-10-25T21:31:05.591Z,55.90
2022-10-25T21:33:34.055Z,55.79
2022-10-25T21:36:12.668Z,55.12
2022-10-25T21:38:41.606Z,55.35
2022-10-25T21:41:11.586Z,54.89
2022-10-25T21:43:43.648Z,55.09
2022-10-25T21:46:12.364Z,55.13
2022-10-25T21:48:40.474Z,55.18
2022-10-25T21:51:09.800Z,54.35
2022-10-25T21:53:37.697Z,54.82
2022-10-25T21:56:11.709Z,55.36
2022-10-25T21:58:40.258Z,55.20
2022-10-25T22:01:09.515Z,54.90
2022-10-25T22:03:37.589Z,54.89
2022-10-25T22:06:07.081Z,54.73
2022-10-25T22:08:36.514Z,55.01
2022-10-25T22:11:07.380Z,54.84
2022-10-25T22:13:35.461Z,54.87
2022-10-25T22:16:05.900Z,54.49
2022-10-25T22:18:34.777Z,54.49
2022-10-25T22:21:04.312Z,54.78
2022-10-25T22:23:32.700Z,55.03
2022-10-25T22:26:03.533Z,55.57
2022-10-25T22:28:33.328Z,55.79
2022-10-25T22:31:05.993Z,56.23
2022-10-25T22:33:34.589Z,56.32
2022-10-25T22:38:32.820Z,56.58
2022-10-25T22:41:04.697Z,56.74
2022-10-25T22:43:34.767Z,56.30
2022-10-25T22:46:03.709Z,55.84
2022-10-25T22:48:31.962Z,55.70
2022-10-25T22:51:00.245Z,55.65
2022-10-25T22:53:29.051Z,55.12
2022-10-25T22:55:58.279Z,55.31
2022-10-25T22:58:28.963Z,55.74
2022-10-25T23:01:06.042Z,55.47
2022-10-25T23:03:34.605Z,55.40
2022-10-25T23:06:03.487Z,55.31
2022-10-25T23:08:32.162Z,55.00
2022-10-25T23:11:01.879Z,55.05
2022-10-25T23:13:32.955Z,55.27
2022-10-25T23:16:01.485Z,55.15
2022-10-25T23:18:29.521Z,55.04
2022-10-25T23:20:58.670Z,55.29
2022-10-25T23:23:27.353Z,54.98
2022-10-25T23:25:55.995Z,54.79
2022-10-25T23:28:24.033Z,54.62
2022-10-25T23:30:53.517Z,54.94
2022-10-25T23:33:21.663Z,54.76
2022-10-25T23:35:50.140Z,55.50
2022-10-25T23:38:18.127Z,56.08
2022-10-25T23:40:47.854Z,57.10
2022-10-25T23:43:15.962Z,56.26
2022-10-25T23:45:43.989Z,56.86
2022-10-25T23:48:13.436Z,56.68
2022-10-25T23:50:41.638Z,56.99
2022-10-25T23:53:09.925Z,56.64
2022-10-25T23:55:38.742Z,56.87
2022-10-25T23:58:07.034Z,56.63
